Etusivu
METAR-TAF:

METAR-TAF

Lentoasemat :

Souillac

Brive-la-Gaillarde, Ranska

Leveyspiiri: 45-02-28N, Pituuspiiri: 001-28-59E, korkeus merenpinnasta: 311 m

Tämänhetkinen sää

Tämä raportti tehtiin 20 minuuttia sitten, kello 20.00 UTC
Tuuli 1 kn kaakosta
Lämpötila 1°C
Kosteus 93%
Ilmanpaine 1013 hPa
Näkyvyys 10 km tai enemmän
ei pilviä alle 1500 m:ssä eikä cumulonimbus-pilviä

METAR: LFSL 212000Z AUTO 13001KT CAVOK 01/00 Q1013 NOSIG

Aika: 21:20 (20:20 UTC)

Sääennuste

Tämä raportti tehtiin 3 tuntia ja 20 minuuttia sitten, kello 17.00 UTC
Ennuste voimassa 21. päivästä klo 18 UTC - 22. päivään klo 03 UTC
Tuuli 5 kn idästä/kaakosta
Näkyvyys 10 km tai enemmän
ei pilviä alle 1500 m:ssä eikä cumulonimbus-pilviä

TAF: LFSL 211700Z 2118/2203 12005KT CAVOK

Säähavainnot ja -ennusteet yli 4000 lentoasemalta (METAR- ja TAF-raportit).

Käytössä olevat sääasemat on merkitty karttaan keltaisilla ja punaisilla pisteillä.

Aseta hiiri pisteen päälle nähdäksesi sääaseman nimen.

Klikkaa sitten nähdäksesi säähavainnot ja -ennusteet.

Kartan vaihtaminen: klikkaa mustalla rastilla varustettuja vihreitä pisteitä, niin voit zoomata sisään; viivalla varustettua vihreää pistettä, niin voit zoomata ulos tai vihreitä nuolia, niin pääset viereisille kartoille.


METAR-TAF: